Tiempo atmosférico en la estación meteorológica de Pedraza de Alba, Salamanca (897 m.)



Fecha
DESCASC
Temp. máxima en grados centígrados (hora)
DESCASC
Temp. mínima en grados centígrados (hora)
DESCASC
Temp. media en grados centígrados
DESCASC
Racha de viento máxima en m/sg (hora)
DESCASC
Velocidad máxima media en intervalos de 10 minutos(hora)
DESCASC
Precipitaciones diarias en mm
DESCASC
Precipitaciones de 00:00 a 06:00 en mm
DESCASC
Precipitaciones de 06:00 a 12:00 en mm
DESCASC
Precipitaciones de 12:00 a 18:00 en mm
DESCASC
Precipitaciones de 18:00 a 24:00 en mm
DESCASC
24-09-2020 19.5 (18:00) 11.6 (23:59) 15.6 11.67 (16:50) 6.39 (16:50) 0 0 0 0 0
23-09-2020 20 (16:50) 13.8 (00:00) 16.9 11.67 (16:20) 6.39 (13:00) 1.2 0.2 0 1 0
22-09-2020 22.4 (16:30) 6.9 (00:00) 14.6 8.06 (17:20) 4.17 (16:20) 0 0 0 0 0
21-09-2020 21.8 (17:00) 7.4 (00:00) 14.6 7.5 (16:30) 3.61 (18:30) 0 0 0 0 0
20-09-2020 20.2 (18:10) 12.2 (00:00) 16.2 12.5 (17:40) 6.11 (11:20) 0.6 0 0 0.6 0
19-09-2020 18.2 (14:50) 13.1 (00:00) 15.7 14.17 (06:20) 8.61 (06:20) 2.8 1.8 1 0 0
18-09-2020 22 (14:50) 12.6 (00:00) 17.3 10 (15:10) 5.56 (16:50) 8.4 1.8 5 1.2 0.4
17-09-2020 26.2 (15:30) 15.9 (00:00) 21.1 10.83 (20:40) 5.83 (20:40) 0.8 0 0 0 0.8
16-09-2020 29.3 (16:40) 10.2 (08:00) 19.7 10.56 (23:00) 5 (23:00) 0 0 0 0 0
15-09-2020 26.9 (16:10) 12.1 (00:00) 19.5 8.33 (17:40) 4.44 (17:40) 0.8 0.8 0 0 0
14-09-2020 29.8 (16:20) 16.8 (00:00) 23.3 10.28 (16:30) 5.56 (17:50) 5 0 0 0 5
13-09-2020 32.4 (15:10) 12.3 (00:00) 22.4 7.78 (17:40) 3.89 (15:20) 0 0 0 0 0
12-09-2020 30.9 (16:20) 10 (08:30) 20.4 9.17 (11:40) 5.56 (11:50) 0 0 0 0 0
11-09-2020 30 (17:20) 8.2 (00:00) 19.1 6.67 (16:40) 4.17 (18:00) 0 0 0 0 0
10-09-2020 28.1 (16:30) 7.4 (00:00) 17.8 8.33 (16:20) 3.61 (14:50) 0 0 0 0 0
09-09-2020 28 (16:40) 7.3 (08:10) 17.7 7.22 (18:00) 4.44 (18:50) 0 0 0 0 0
08-09-2020 26.4 (17:10) 3.6 (00:00) 15 11.11 (15:00) 4.44 (15:50) 0 0 0 0 0
07-09-2020 23.4 (17:30) 8.4 (08:00) 15.9 9.17 (13:40) 5.56 (11:10) 0 0 0 0 0
06-09-2020 29.3 (16:50) 9.4 (00:00) 19.3 7.22 (17:50) 4.17 (17:30) 0 0 0 0 0
05-09-2020 31.5 (17:00) 12.6 (00:00) 22.1 8.33 (16:50) 4.44 (16:50) 0 0 0 0 0
04-09-2020 32.1 (17:00) 10.6 (00:00) 21.3 11.94 (13:40) 4.17 (16:00) 0 0 0 0 0
03-09-2020 30 (16:10) 7.8 (00:00) 18.9 7.22 (15:40) 3.61 (16:00) 0 0 0 0 0
02-09-2020 27.1 (16:40) 4.3 (00:00) 15.7 7.78 (13:30) 4.44 (13:30) 0 0 0 0 0
01-09-2020 26.2 (18:30) 9.7 (00:00) 18 7.22 (13:50) 3.61 (13:50) 0 0 0 0 0
31-08-2020 25 (17:00) 3.4 (00:00) 14.2 7.22 (14:30) 3.61 (14:00) 0 0 0 0 0
30-08-2020 19.8 (17:00) 4 (00:00) 11.9 9.17 (11:50) 5 (10:00) 0 0 0 0 0
29-08-2020 20.6 (16:40) 8.2 (00:00) 14.4 10.28 (18:20) 6.11 (18:20) 0 0 0 0 0
28-08-2020 26.2 (17:30) 14.2 (00:00) 20.2 9.17 (15:20) 4.72 (17:50) 0 0 0 0 0

Gráficas

Temp. máximas Temp. mínimas Temp. medias Precipitaciones Rachas de viento máximas Velocidades máximas media en intervalos de 10 minutos

Datos horarios

Fecha y hora oficial Temperatura (ºC) Velocidad del viento (km/h) Dirección del viento Racha (km/h) Dirección de racha Precipitación (mm) Presión (hPa) Tendencia (hPa) Humedad (%)
2020-09-26 23:00:00 -- -- -- -- -- -- -- -- --
2020-09-26 22:00:00 -- -- -- -- -- -- -- -- --
2020-09-26 21:00:00 13.9 10 Oeste 22 Oeste 0 -- -- 70
2020-09-26 20:00:00 14.9 14 Oeste 31 Oeste 0 -- -- 65
2020-09-26 19:00:00 16.4 18 Oeste 34 Oeste 0 -- -- 57
2020-09-26 18:00:00 17.8 17 Oeste 33 Oeste 0 -- -- 45
2020-09-26 17:00:00 18 15 Noroeste 31 Noroeste 0 -- -- 44
2020-09-26 16:00:00 17.9 14 Noroeste 29 Noroeste 0 -- -- 42
2020-09-26 15:00:00 17.5 12 Oeste 25 Noroeste 0 -- -- 40
2020-09-26 14:00:00 15.8 12 Oeste 23 Noroeste 0 -- -- 45
2020-09-26 13:00:00 15.1 9 Oeste 19 Oeste 0 -- -- 46
2020-09-26 12:00:00 14 3 Nordeste 10 Sudeste 0 -- -- 49
2020-09-26 11:00:00 12.2 3 Este 8 Norte 0 -- -- 55
2020-09-26 10:00:00 8.8 0 Calma 5 Sur 0 -- -- 76
2020-09-26 09:00:00 4.6 0 Calma 5 Sur 0 -- -- 94
2020-09-26 08:00:00 3.2 3 Sur 7 Sur 0 -- -- 90
2020-09-26 07:00:00 2.7 3 Sur 6 Sur 0 -- -- 92
2020-09-26 06:00:00 3.2 0 Calma 5 Sur 0 -- -- 89
2020-09-26 05:00:00 3.6 0 Calma 6 Sur 0 -- -- 87
2020-09-26 04:00:00 4 2 Sur 6 Sudeste 0 -- -- 86
2020-09-26 03:00:00 4.6 2 Sur 7 Sur 0 -- -- 82
2020-09-26 02:00:00 5.9 0 Calma 5 Sudeste 0 -- -- 78
2020-09-26 01:00:00 7.6 3 Sur 10 Sur 0 -- -- 71
2020-09-26 00:00:00 8.5 4 Sur 13 Noroeste 0 -- -- 68
2020-09-25 23:00:00 10 7 Noroeste 13 Oeste 0 -- -- 61
2020-09-25 22:00:00 10.9 6 Noroeste 12 Oeste 0 -- -- 57
2020-09-25 21:00:00 12 6 Oeste 17 Oeste 0 -- -- 51
2020-09-25 20:00:00 13.2 9 Noroeste 28 Noroeste 0 -- -- 47
2020-09-25 19:00:00 14.8 14 Noroeste 31 Noroeste 0 -- -- 44
2020-09-25 18:00:00 15.3 15 Noroeste 33 Noroeste 0 -- -- 43
2020-09-25 17:00:00 15.4 19 Noroeste 36 Noroeste 0 -- -- 43
2020-09-25 16:00:00 15.4 15 Noroeste 31 Norte 0 -- -- 44
2020-09-25 15:00:00 14.9 14 Noroeste 32 Noroeste 0 -- -- 45
2020-09-25 14:00:00 14.1 15 Noroeste 30 Noroeste 0 -- -- 45
2020-09-25 13:00:00 12.6 14 Noroeste 32 Noroeste 0 -- -- 52
2020-09-25 12:00:00 11.4 14 Noroeste 34 Noroeste 0 -- -- 56
2020-09-25 11:00:00 10.3 16 Oeste 32 Noroeste 0 -- -- 61
2020-09-25 10:00:00 9.4 11 Oeste 23 Oeste 0 -- -- 69
2020-09-25 09:00:00 8.1 12 Oeste 23 Oeste 0 -- -- 72
2020-09-25 08:00:00 8.2 12 Oeste 33 Oeste 0 -- -- 70
2020-09-25 07:00:00 9.5 9 Oeste 22 Oeste 0 -- -- 82
2020-09-25 06:00:00 9.2 11 Oeste 23 Oeste 0 -- -- 84
2020-09-25 05:00:00 10 14 Oeste 27 Sudoeste 0 -- -- 82
2020-09-25 04:00:00 9.9 14 Sudoeste 24 Oeste 0 -- -- 84
2020-09-25 03:00:00 10.1 13 Sudoeste 27 Sudoeste 0 -- -- 81
2020-09-25 02:00:00 10.1 12 Sudoeste 25 Sudoeste 0 -- -- 80
2020-09-25 01:00:00 11.2 14 Sudoeste 27 Sudoeste 0 -- -- 74
2020-09-25 00:00:00 11.6 11 Sudoeste 23 Sudoeste 0 -- -- 70
2020-09-24 23:00:00 12.5 10 Sudoeste 21 Oeste 0 -- -- 65
2020-09-24 22:00:00 13.1 8 Oeste 28 Noroeste 0 -- -- 59
2020-09-24 21:00:00 14.5 17 Oeste 36 Oeste 0 -- -- 56
2020-09-24 20:00:00 16.1 15 Oeste 36 Oeste 0 -- -- 53
2020-09-24 19:00:00 18.3 18 Oeste 41 Oeste 0 -- -- 45
2020-09-24 18:00:00 19.5 21 Oeste 42 Oeste 0 -- -- 42
2020-09-24 17:00:00 19.3 23 Oeste 42 Oeste 0 -- -- 47
2020-09-24 16:00:00 18 22 Oeste 41 Oeste 0 -- -- 54
2020-09-24 15:00:00 18.5 19 Oeste 40 Oeste 0 -- -- 54
2020-09-24 14:00:00 17.5 13 Oeste 29 Noroeste 0 -- -- 68
2020-09-24 13:00:00 15.6 14 Oeste 29 Oeste 0 -- -- 74
2020-09-24 12:00:00 14.6 13 Oeste 23 Oeste 0 -- -- 86
2020-09-24 11:00:00 14.4 10 Oeste 21 Oeste 0 -- -- 90
2020-09-24 10:00:00 13.9 10 Oeste 19 Oeste 0 -- -- 91
2020-09-24 09:00:00 14 6 Oeste 13 Oeste 0 -- -- 94
2020-09-24 08:00:00 13.9 4 Sudoeste 11 Oeste 0 -- -- 94
2020-09-24 07:00:00 13.8 4 Oeste 10 Noroeste 0 -- -- 94
2020-09-24 06:00:00 14.1 6 Oeste 12 Oeste 0 -- -- 93
2020-09-24 05:00:00 14.2 3 Oeste 13 Oeste 0 -- -- 94
2020-09-24 04:00:00 14.4 6 Oeste 17 Noroeste 0 -- -- 93
2020-09-24 03:00:00 14.8 5 Sudoeste 13 Sudoeste 0 -- -- 93
2020-09-24 02:00:00 14.4 2 Oeste 9 Sudoeste 0 -- -- 92
2020-09-24 01:00:00 13.9 4 Sudoeste 8 Sudoeste 0 -- -- 92
2020-09-24 00:00:00 14.7 3 Sudoeste 14 Sudoeste 0 -- -- 88
2020-09-23 23:00:00 14.7 6 Sudoeste 13 Sudoeste 0 -- -- 89
2020-09-23 22:00:00 15.1 8 Sudoeste 16 Sudoeste 0 -- -- 88
2020-09-23 21:00:00 15.1 6 Sudoeste 14 Sudoeste 0 -- -- 89
2020-09-23 20:00:00 16 7 Sur 14 Sudoeste 0 -- -- 89
2020-09-23 19:00:00 16.1 6 Oeste 17 Oeste 0 -- -- 88
2020-09-23 18:00:00 16.4 8 Noroeste 30 Sudoeste 1 -- -- 88
2020-09-23 17:00:00 19.5 19 Sudoeste 42 Sudoeste 0 -- -- 64
2020-09-23 16:00:00 19.7 21 Sudoeste 39 Sudoeste 0 -- -- 63
2020-09-23 15:00:00 19.6 21 Sudoeste 39 Oeste 0 -- -- 64
2020-09-23 14:00:00 18.3 19 Sudoeste 35 Sudoeste 0 -- -- 68
2020-09-23 13:00:00 18.8 23 Sudoeste 38 Sudoeste 0 -- -- 66
2020-09-23 12:00:00 17.5 18 Oeste 33 Oeste 0 -- -- 70
2020-09-23 11:00:00 16.8 19 Sudoeste 38 Sudoeste 0 -- -- 72
2020-09-23 10:00:00 15.4 13 Sudoeste 27 Sudoeste 0 -- -- 85
2020-09-23 09:00:00 14.1 7 Sudoeste 13 Sudoeste 0 -- -- 92
2020-09-23 08:00:00 14 6 Sudoeste 17 Sudoeste 0 -- -- 92
2020-09-23 07:00:00 14.5 6 Sudoeste 15 Sudoeste 0 -- -- 92
2020-09-23 06:00:00 14.7 8 Sudoeste 17 Sudoeste 0.2 -- -- 91
2020-09-23 05:00:00 14.5 2 Sur 3 Sur 0 -- -- 87
2020-09-23 04:00:00 14.8 0 Calma 5 Sudoeste 0 -- -- 85
2020-09-23 03:00:00 14.7 3 Oeste 7 Sudoeste 0 -- -- 85
2020-09-23 02:00:00 14.4 3 Sudoeste 11 Sudoeste 0 -- -- 86
2020-09-23 01:00:00 15.3 5 Sudoeste 10 Sudoeste 0 -- -- 81
2020-09-23 00:00:00 15.9 4 Sudoeste 13 Sudoeste 0 -- -- 75
2020-09-22 23:00:00 17 6 Sudoeste 13 Sudoeste 0 -- -- 69
2020-09-22 22:00:00 17.1 6 Sudoeste 14 Sudoeste 0 -- -- 68
2020-09-22 21:00:00 18.5 11 Sudoeste 25 Sudoeste 0 -- -- 61
2020-09-22 20:00:00 19.9 7 Oeste 26 Oeste 0 -- -- 53
2020-09-22 19:00:00 21 12 Oeste 26 Oeste 0 -- -- 48
2020-09-22 18:00:00 21.6 13 Noroeste 29 Noroeste 0 -- -- 43
2020-09-22 17:00:00 21.8 13 Oeste 28 Oeste 0 -- -- 40
2020-09-22 16:00:00 21.7 13 Oeste 26 Noroeste 0 -- -- 38
2020-09-22 15:00:00 20.7 11 Noroeste 22 Oeste 0 -- -- 47
2020-09-22 14:00:00 20.1 9 Oeste 23 Oeste 0 -- -- 48
2020-09-22 13:00:00 18.9 7 Oeste 20 Noroeste 0 -- -- 54
2020-09-22 12:00:00 17 6 Oeste 14 Oeste 0 -- -- 64
2020-09-22 11:00:00 15.5 5 Oeste 10 Oeste 0 -- -- 72
2020-09-22 10:00:00 12.7 3 Sudoeste 5 Sudoeste 0 -- -- 85
2020-09-22 09:00:00 8 2 Sur 4 Sur 0 -- -- 95
2020-09-22 08:00:00 7.5 0 Calma 4 Sur 0 -- -- 92
2020-09-22 07:00:00 8.4 0 Calma 5 Sur 0 -- -- 90
2020-09-22 06:00:00 8.8 2 Sur 6 Sudoeste 0 -- -- 89
2020-09-22 05:00:00 9.1 3 Sur 7 Sudeste 0 -- -- 87
2020-09-22 04:00:00 10.1 4 Sur 7 Sur 0 -- -- 83
2020-09-22 03:00:00 11.7 3 Sur 6 Sur 0 -- -- 78
2020-09-22 02:00:00 13.1 3 Sur 7 Sur 0 -- -- 74
2020-09-22 01:00:00 13.2 3 Sur 5 Sudeste 0 -- -- 71
2020-09-22 00:00:00 15.2 2 Sur 5 Sudoeste 0 -- -- 64
2020-09-21 23:00:00 15.6 3 Sudoeste 5 Sudoeste 0 -- -- 61
2020-09-21 22:00:00 15.5 2 Sudoeste 5 Oeste 0 -- -- 62
2020-09-21 21:00:00 16.5 4 Oeste 16 Noroeste 0 -- -- 51
2020-09-21 20:00:00 18.5 10 Noroeste 23 Oeste 0 -- -- 45
2020-09-21 19:00:00 20.2 13 Oeste 24 Oeste 0 -- -- 41
2020-09-21 18:00:00 21.7 8 Oeste 22 Oeste 0 -- -- 38
2020-09-21 17:00:00 21.8 11 Noroeste 27 Norte 0 -- -- 39
2020-09-21 16:00:00 21.2 9 Oeste 21 Norte 0 -- -- 37
2020-09-21 15:00:00 20 5 Norte 17 Oeste 0 -- -- 42
2020-09-21 14:00:00 19.2 4 Sudeste 11 Oeste 0 -- -- 49
2020-09-21 13:00:00 17.4 5 Nordeste 12 Noroeste 0 -- -- 63
2020-09-21 12:00:00 15.5 4 Noroeste 8 Oeste 0 -- -- 73
2020-09-21 11:00:00 14.3 2 Noroeste 8 Noroeste 0 -- -- 82
2020-09-21 10:00:00 12.1 0 Calma 5 Sur 0 -- -- 95
2020-09-21 09:00:00 8.2 3 Sur 5 Sudeste 0 -- -- 98
2020-09-21 08:00:00 7.5 2 Sur 4 Sudoeste 0 -- -- 95
2020-09-21 07:00:00 8.5 3 Sur 6 Sur 0 -- -- 95
2020-09-21 06:00:00 9.1 3 Sur 7 Sur 0 -- -- 95
2020-09-21 05:00:00 9.4 2 Sudoeste 6 Sur 0 -- -- 93
2020-09-21 04:00:00 9.7 0 Calma 4 Sur 0 -- -- 90
2020-09-21 03:00:00 10.8 3 Sudoeste 7 Sudeste 0 -- -- 89
2020-09-21 02:00:00 11.2 4 Sudoeste 8 Sudeste 0 -- -- 88
2020-09-21 01:00:00 12.4 5 Sudoeste 10 Oeste 0 -- -- 83
2020-09-21 00:00:00 12.4 5 Sudoeste 8 Sudoeste 0 -- -- 85
2020-09-20 23:00:00 13.4 7 Sudoeste 11 Sudoeste 0 -- -- 80
2020-09-20 22:00:00 14.4 4 Sudoeste 8 Oeste 0 -- -- 75
2020-09-20 21:00:00 16.7 5 Sudoeste 15 Oeste 0 -- -- 63
2020-09-20 20:00:00 18.8 9 Oeste 27 Oeste 0 -- -- 54
2020-09-20 19:00:00 19.9 15 Oeste 32 Oeste 0 -- -- 55
2020-09-20 18:00:00 20.1 16 Oeste 45 Oeste 0 -- -- 63
2020-09-20 17:00:00 18.7 13 Sudoeste 27 Oeste 0 -- -- 72
2020-09-20 16:00:00 18 14 Oeste 30 Oeste 0.2 -- -- 72
2020-09-20 15:00:00 18.5 19 Oeste 35 Sudoeste 0 -- -- 71
2020-09-20 14:00:00 16.9 14 Sudoeste 36 Sudoeste 0.4 -- -- 88
2020-09-20 13:00:00 18.3 15 Sudoeste 32 Sudoeste 0 -- -- 69
2020-09-20 12:00:00 17.5 18 Sudoeste 36 Sudoeste 0 -- -- 75
2020-09-20 11:00:00 16.5 17 Sudoeste 33 Sudoeste 0 -- -- 78
2020-09-20 10:00:00 15.4 14 Sudoeste 30 Sudoeste 0 -- -- 84
2020-09-20 09:00:00 14.6 8 Sudoeste 17 Sudoeste 0 -- -- 90
2020-09-20 08:00:00 14.4 9 Sudoeste 23 Sudoeste 0 -- -- 89
2020-09-20 07:00:00 14.4 9 Sudoeste 19 Sudoeste 0 -- -- 90
2020-09-20 06:00:00 14.8 14 Sudoeste 27 Sudoeste 0 -- -- 87
2020-09-20 05:00:00 14.8 10 Sudoeste 23 Sudoeste 0 -- -- 88
2020-09-20 04:00:00 14.7 6 Sudoeste 23 Sudoeste 0 -- -- 89
2020-09-20 03:00:00 14.7 12 Sudoeste 26 Sudoeste 0 -- -- 87
2020-09-20 02:00:00 14.9 11 Sudoeste 27 Sudoeste 0 -- -- 86
2020-09-20 01:00:00 14.7 14 Sudoeste 25 Sudoeste 0 -- -- 87
2020-09-20 00:00:00 14.5 12 Sudoeste 23 Sudoeste 0 -- -- 88
2020-09-19 23:00:00 14.6 13 Sudoeste 22 Sudoeste 0 -- -- 87
2020-09-19 22:00:00 14.2 7 Sudoeste 17 Sudoeste 0 -- -- 88
2020-09-19 21:00:00 14.5 9 Sudoeste 26 Oeste 0 -- -- 85
2020-09-19 20:00:00 15.4 10 Sudoeste 30 Sudoeste 0 -- -- 78
2020-09-19 19:00:00 15.6 15 Sudoeste 33 Sudoeste 0 -- -- 73
2020-09-19 18:00:00 16.2 23 Sudoeste 41 Sudoeste 0 -- -- 67
2020-09-19 17:00:00 17.4 22 Sudoeste 43 Sudoeste 0 -- -- 67
2020-09-19 16:00:00 15.9 18 Sudoeste 41 Sudoeste 0 -- -- 80
2020-09-19 15:00:00 18.2 19 Sudoeste 33 Sudoeste 0 -- -- 65
2020-09-19 14:00:00 17.5 17 Oeste 36 Oeste 0 -- -- 70
2020-09-19 13:00:00 16.7 18 Sudoeste 28 Sudoeste 0 -- -- 73
2020-09-19 12:00:00 15.5 15 Sudoeste 32 Sudoeste 0 -- -- 83
2020-09-19 11:00:00 14.5 15 Sudoeste 35 Sudoeste 0 -- -- 90
2020-09-19 10:00:00 13.9 21 Sudoeste 40 Sudoeste 0 -- -- 92
2020-09-19 09:00:00 13.4 18 Sudoeste 40 Sudoeste 0.6 -- -- 93
2020-09-19 08:00:00 13.4 18 Sudoeste 37 Sudoeste 0.4 -- -- 93
2020-09-19 07:00:00 13.7 23 Sudoeste 51 Sudoeste 0 -- -- 87
2020-09-19 06:00:00 13.7 22 Sudoeste 41 Sudoeste 0 -- -- 89
2020-09-19 05:00:00 13.8 15 Sudoeste 33 Sudoeste 0.6 -- -- 88
2020-09-19 04:00:00 13.4 7 Sur 12 Sur 0.4 -- -- 92
2020-09-19 03:00:00 13.3 4 Sudeste 15 Sudoeste 0.8 -- -- 92
2020-09-19 02:00:00 13.4 6 Sudoeste 12 Sudoeste 0 -- -- 86
2020-09-19 01:00:00 13.4 6 Sur 14 Sudoeste 0 -- -- 85
2020-09-19 00:00:00 13.6 6 Sur 14 Sur 0.2 -- -- 85
2020-09-18 23:00:00 13.3 2 Sur 15 Sudoeste 0.2 -- -- 87
2020-09-18 22:00:00 13.9 9 Sur 29 Sur 0 -- -- 79
2020-09-18 21:00:00 14.4 5 Sur 10 Sudoeste 0 -- -- 75
2020-09-18 20:00:00 14.6 3 Sur 13 Sudeste 0 -- -- 74
2020-09-18 19:00:00 14.8 3 Este 17 Sudeste 0 -- -- 72
2020-09-18 18:00:00 14.8 10 Sudeste 24 Sur 0.8 -- -- 81
2020-09-18 17:00:00 16.9 19 Sur 36 Sur 0.2 -- -- 69
2020-09-18 16:00:00 21 13 Sudoeste 36 Sur 0 -- -- 42
2020-09-18 15:00:00 21.7 17 Sur 31 Sur 0 -- -- 38
2020-09-18 14:00:00 21.1 12 Sudoeste 26 Sudoeste 0.2 -- -- 47
2020-09-18 13:00:00 18.9 8 Oeste 17 Sudoeste 0 -- -- 50
2020-09-18 12:00:00 17 9 Sur 15 Sur 0 -- -- 56
2020-09-18 11:00:00 16.6 2 Sur 13 Sudeste 0 -- -- 66
2020-09-18 10:00:00 15.7 7 Sur 15 Sur 0 -- -- 77
2020-09-18 09:00:00 12.7 7 Sudoeste 16 Sudeste 0 -- -- 88
2020-09-18 08:00:00 12.7 10 Sudeste 21 Sur 0 -- -- 92
2020-09-18 07:00:00 13 3 Sur 17 Sudoeste 5 -- -- 91
2020-09-18 06:00:00 13.5 8 Sudoeste 14 Sudoeste 0 -- -- 88
2020-09-18 05:00:00 14 4 Sudeste 17 Sudeste 0.8 -- -- 88
2020-09-18 04:00:00 14.8 5 Sudeste 12 Sudeste 1 -- -- 93
2020-09-18 03:00:00 14.3 2 Sudeste 5 Noroeste 0 -- -- 91
2020-09-18 02:00:00 14.5 0 Calma 6 Sudoeste 0 -- -- 89
2020-09-18 01:00:00 15.1 4 Sudoeste 10 Sudoeste 0 -- -- 87
2020-09-18 00:00:00 15.9 6 Sudoeste 14 Oeste 0.2 -- -- 81
2020-09-17 23:00:00 16.3 4 Sudeste 33 Sur 0.4 -- -- 78
2020-09-17 22:00:00 16.7 5 Sudeste 22 Sudoeste 0.2 -- -- 73
2020-09-17 21:00:00 17.9 9 Sudoeste 39 Sur 0 -- -- 68
2020-09-17 20:00:00 22.9 4 Sur 28 Sudeste 0 -- -- 46
2020-09-17 19:00:00 23.7 19 Sur 34 Sur 0 -- -- 47
2020-09-17 18:00:00 24.4 19 Sur 35 Sur 0 -- -- 45
2020-09-17 17:00:00 24.4 16 Sur 30 Sudeste 0 -- -- 45
2020-09-17 16:00:00 24.7 17 Sur 35 Sudeste 0 -- -- 43
2020-09-17 15:00:00 24.8 5 Sur 27 Sur 0 -- -- 39
2020-09-17 14:00:00 24.9 10 Sudeste 28 Sur 0 -- -- 39
2020-09-17 13:00:00 24.8 11 Sur 27 Sudeste 0 -- -- 42
2020-09-17 12:00:00 23.7 19 Sudeste 33 Sudeste 0 -- -- 46
2020-09-17 11:00:00 22.4 13 Sur 28 Sudeste 0 -- -- 49
2020-09-17 10:00:00 19.7 10 Sudeste 22 Sur 0 -- -- 59
2020-09-17 09:00:00 18.8 9 Sur 21 Sudeste 0 -- -- 62
2020-09-17 08:00:00 18.3 10 Sudeste 24 Sudeste 0 -- -- 63
2020-09-17 07:00:00 18.9 14 Sudeste 25 Sur 0 -- -- 58
2020-09-17 06:00:00 19.1 9 Sur 24 Sudeste 0 -- -- 55
2020-09-17 05:00:00 19.5 13 Sudeste 27 Sudeste 0 -- -- 56
2020-09-17 04:00:00 19.8 9 Sudeste 22 Sudeste 0 -- -- 52
2020-09-17 03:00:00 19.8 11 Sudeste 21 Sudeste 0 -- -- 50
2020-09-17 02:00:00 19.7 4 Sudeste 28 Este 0 -- -- 51
2020-09-17 01:00:00 21 5 Sudeste 36 Este 0 -- -- 46
2020-09-17 00:00:00 22 14 Sudeste 28 Sudeste 0 -- -- 38
2020-09-16 23:00:00 22.5 18 Sur 38 Sudoeste 0 -- -- 38
2020-09-16 22:00:00 20.7 3 Sur 5 Sur 0 -- -- 51
2020-09-16 21:00:00 22.9 3 Sudoeste 10 Oeste 0 -- -- 43
2020-09-16 20:00:00 24.7 8 Sudoeste 18 Sudoeste 0 -- -- 37
2020-09-16 19:00:00 26.8 10 Oeste 21 Oeste 0 -- -- 31
2020-09-16 18:00:00 27.8 10 Oeste 20 Oeste 0 -- -- 30
2020-09-16 17:00:00 28.7 5 Sur 18 Sudeste 0 -- -- 25
2020-09-16 16:00:00 28.6 8 Sudeste 20 Sudeste 0 -- -- 23
2020-09-16 15:00:00 27.2 6 Este 23 Nordeste 0 -- -- 32
2020-09-16 14:00:00 26.8 10 Norte 21 Nordeste 0 -- -- 35
2020-09-16 13:00:00 24.7 4 Sudoeste 11 Nordeste 0 -- -- 40
2020-09-16 12:00:00 22.6 6 Nordeste 9 Nordeste 0 -- -- 52
2020-09-16 11:00:00 20.4 3 Norte 10 Norte 0 -- -- 58
2020-09-16 10:00:00 16.2 0 Calma 5 Sudeste 0 -- -- 76
2020-09-16 09:00:00 11.2 0 Calma 4 Sur 0 -- -- 90
2020-09-16 08:00:00 10.2 2 Sur 8 Sudeste 0 -- -- 88
2020-09-16 07:00:00 10.7 3 Sur 6 Sudeste 0 -- -- 86
2020-09-16 06:00:00 11.3 3 Sur 8 Sur 0 -- -- 85
2020-09-16 05:00:00 11.4 6 Sur 9 Sur 0 -- -- 85
2020-09-16 04:00:00 11.6 4 Sur 6 Sur 0 -- -- 85
2020-09-16 03:00:00 12.5 0 Calma 5 Sudeste 0 -- -- 82
2020-09-16 02:00:00 13.1 3 Sudeste 7 Sur 0 -- -- 80
2020-09-16 01:00:00 13.2 3 Sur 5 Sur 0 -- -- 80
2020-09-16 00:00:00 14.7 2 Sur 9 Sur 0 -- -- 74
2020-09-15 23:00:00 16.1 3 Sur 7 Sudoeste 0 -- -- 69
2020-09-15 22:00:00 17.7 3 Sur 8 Sudeste 0 -- -- 63
2020-09-15 21:00:00 20.7 5 Sudoeste 15 Sudoeste 0 -- -- 52
2020-09-15 20:00:00 23.4 13 Sudoeste 23 Sudoeste 0 -- -- 43
2020-09-15 19:00:00 24.9 14 Oeste 28 Oeste 0 -- -- 39
2020-09-15 18:00:00 26 14 Sudoeste 30 Oeste 0 -- -- 39
2020-09-15 17:00:00 25.6 6 Sudoeste 23 Sudoeste 0 -- -- 41
2020-09-15 16:00:00 26.4 10 Sudoeste 26 Sudoeste 0 -- -- 39
2020-09-15 15:00:00 26.4 7 Sur 26 Sudoeste 0 -- -- 36
2020-09-15 14:00:00 25.6 6 Sudoeste 19 Sudoeste 0 -- -- 41
2020-09-15 13:00:00 23.8 7 Oeste 16 Sur 0 -- -- 48
2020-09-15 12:00:00 22.2 8 Sudoeste 15 Sudoeste 0 -- -- 56
2020-09-15 11:00:00 20.5 2 Nordeste 5 Nordeste 0 -- -- 71
2020-09-15 10:00:00 17.3 0 Calma 6 Sur 0 -- -- 90
2020-09-15 09:00:00 13.2 0 Calma 6 Sur 0 -- -- 96
2020-09-15 08:00:00 12.2 3 Sur 5 Sur 0 -- -- 94
2020-09-15 07:00:00 13.1 2 Sur 5 Sur 0 -- -- 94
2020-09-15 06:00:00 13.5 2 Sur 5 Sur 0 -- -- 92
2020-09-15 05:00:00 13.9 4 Sur 7 Sur 0 -- -- 93
2020-09-15 04:00:00 14.4 4 Sur 11 Oeste 0.2 -- -- 92
2020-09-15 03:00:00 15.3 8 Oeste 16 Oeste 0 -- -- 90
2020-09-15 02:00:00 16 3 Sur 8 Sudeste 0 -- -- 89
2020-09-15 01:00:00 16.6 4 Sudeste 17 Sudoeste 0.6 -- -- 89
2020-09-15 00:00:00 16.8 8 Sudoeste 17 Sudoeste 3.6 -- -- 86
2020-09-14 23:00:00 17.6 6 Este 15 Sudeste 0 -- -- 75
2020-09-14 22:00:00 18.4 9 Sur 32 Sur 1.4 -- -- 74
2020-09-14 21:00:00 24.3 8 Oeste 15 Sudoeste 0 -- -- 44
2020-09-14 20:00:00 26.2 8 Sudoeste 22 Sudoeste 0 -- -- 34
2020-09-14 19:00:00 27 13 Sudoeste 23 Sudoeste 0 -- -- 32
2020-09-14 18:00:00 27.9 15 Sudoeste 36 Sudoeste 0 -- -- 31
2020-09-14 17:00:00 28.5 16 Sudoeste 37 Sudoeste 0 -- -- 31
2020-09-14 16:00:00 29.3 17 Sudoeste 32 Sudoeste 0 -- -- 29
2020-09-14 15:00:00 26.9 5 Sudeste 22 Sudeste 0 -- -- 36
2020-09-14 14:00:00 26.8 8 Norte 17 Norte 0 -- -- 37
2020-09-14 13:00:00 22.9 2 Norte 12 Oeste 0 -- -- 47
2020-09-14 12:00:00 21.2 5 Oeste 9 Noroeste 0 -- -- 53
2020-09-14 11:00:00 20.5 4 Oeste 10 Oeste 0 -- -- 52
2020-09-14 10:00:00 19.3 0 Calma 5 Norte 0 -- -- 49
2020-09-14 09:00:00 18.3 3 Sur 5 Sudeste 0 -- -- 51
2020-09-14 08:00:00 18.4 5 Sudoeste 12 Oeste 0 -- -- 48
2020-09-14 07:00:00 17.1 0 Calma 6 Sudoeste 0 -- -- 51
2020-09-14 06:00:00 18.2 5 Sudoeste 7 Sudoeste 0 -- -- 46
2020-09-14 05:00:00 20.3 5 Sudoeste 11 Oeste 0 -- -- 41
2020-09-14 04:00:00 22.4 8 Sur 21 Sur 0 -- -- 37
2020-09-14 03:00:00 23.6 11 Sur 20 Sur 0 -- -- 34
2020-09-14 02:00:00 24.3 11 Sur 26 Sudeste 0 -- -- 32
2020-09-14 01:00:00 24.2 8 Sudeste 23 Sur 0 -- -- 32
2020-09-14 00:00:00 24.2 9 Sur 26 Sudeste 0 -- -- 32
2020-09-13 23:00:00 23.4 7 Sur 14 Sur 0 -- -- 35
2020-09-13 22:00:00 22.3 4 Sur 14 Sudeste 0 -- -- 38
2020-09-13 21:00:00 24.5 4 Sur 11 Sur 0 -- -- 32
2020-09-13 20:00:00 27.5 4 Sur 23 Sudoeste 0 -- -- 28
2020-09-13 19:00:00 29.8 13 Sudoeste 23 Sudoeste 0 -- -- 25
2020-09-13 18:00:00 30.9 9 Sudoeste 28 Sudoeste 0 -- -- 24
2020-09-13 17:00:00 32.4 8 Norte 24 Norte 0 -- -- 21
2020-09-13 16:00:00 31.6 12 Norte 24 Norte 0 -- -- 22
2020-09-13 15:00:00 32.1 13 Norte 23 Norte 0 -- -- 21
2020-09-13 14:00:00 31.6 9 Noroeste 21 Norte 0 -- -- 22
2020-09-13 13:00:00 30.1 10 Norte 19 Norte 0 -- -- 24
2020-09-13 12:00:00 29.3 7 Norte 16 Sudoeste 0 -- -- 25
2020-09-13 11:00:00 25.3 4 Noroeste 9 Oeste 0 -- -- 32
2020-09-13 10:00:00 20.8 2 Oeste 8 Oeste 0 -- -- 38
2020-09-13 09:00:00 14.9 2 Sudoeste 5 Sudoeste 0 -- -- 54
2020-09-13 08:00:00 12.3 3 Sur 6 Sur 0 -- -- 58
2020-09-13 07:00:00 13.7 3 Sur 6 Sudeste 0 -- -- 53
2020-09-13 06:00:00 14.8 3 Sur 8 Sudoeste 0 -- -- 50
2020-09-13 05:00:00 13.9 3 Sur 8 Sudeste 0 -- -- 51
2020-09-13 04:00:00 13.2 0 Calma 4 Noroeste 0 -- -- 51
2020-09-13 03:00:00 13.9 0 Calma 6 Sudeste 0 -- -- 48
2020-09-13 02:00:00 14.2 3 Sur 8 Sur 0 -- -- 45
2020-09-13 01:00:00 14.3 2 Sur 5 Sur 0 -- -- 42
2020-09-13 00:00:00 15.7 4 Sur 8 Sudeste 0 -- -- 39
2020-09-12 23:00:00 17.6 0 Calma 5 Sur 0 -- -- 36
2020-09-12 22:00:00 20.6 3 Sudeste 5 Este 0 -- -- 30
2020-09-12 21:00:00 24.4 0 Calma 14 Norte 0 -- -- 25
2020-09-12 20:00:00 28.2 9 Norte 22 Nordeste 0 -- -- 21
2020-09-12 19:00:00 29.2 12 Nordeste 25 Nordeste 0 -- -- 20
2020-09-12 18:00:00 30.5 12 Nordeste 27 Norte 0 -- -- 18
2020-09-12 17:00:00 30.5 15 Norte 26 Norte 0 -- -- 18
2020-09-12 16:00:00 30.4 16 Nordeste 29 Nordeste 0 -- -- 19
2020-09-12 15:00:00 30.8 15 Nordeste 31 Nordeste 0 -- -- 18
2020-09-12 14:00:00 29.7 19 Nordeste 32 Norte 0 -- -- 19
2020-09-12 13:00:00 29 18 Nordeste 32 Nordeste 0 -- -- 19
2020-09-12 12:00:00 28 18 Nordeste 33 Este 0 -- -- 21
2020-09-12 11:00:00 23.3 7 Nordeste 13 Nordeste 0 -- -- 30
2020-09-12 10:00:00 18 5 Norte 10 Norte 0 -- -- 38
2020-09-12 09:00:00 12 0 Calma 4 Sur 0 -- -- 60
2020-09-12 08:00:00 10.3 0 Calma 5 Sur 0 -- -- 63
2020-09-12 07:00:00 10.7 0 Calma 5 Sur 0 -- -- 60
2020-09-12 06:00:00 11.2 4 Sur 5 Sur 0 -- -- 61
2020-09-12 05:00:00 12.5 3 Sur 5 Sur 0 -- -- 56
2020-09-12 04:00:00 13.2 0 Calma 4 Sur 0 -- -- 53
2020-09-12 03:00:00 14.1 2 Sur 4 Sudeste 0 -- -- 50
2020-09-12 02:00:00 13.9 0 Calma 4 Noroeste 0 -- -- 49
2020-09-12 01:00:00 14.8 0 Calma 7 Sur 0 -- -- 46
2020-09-12 00:00:00 15.3 4 Sur 7 Sur 0 -- -- 44
2020-09-11 23:00:00 16.1 4 Sur 7 Sur 0 -- -- 41
2020-09-11 22:00:00 18.6 2 Sur 4 Sur 0 -- -- 35
2020-09-11 21:00:00 22.6 0 Calma 10 Norte 0 -- -- 29
2020-09-11 20:00:00 26.6 9 Norte 22 Norte 0 -- -- 24
2020-09-11 19:00:00 28 14 Norte 23 Norte 0 -- -- 23
2020-09-11 18:00:00 28.1 15 Norte 24 Norte 0 -- -- 23
2020-09-11 17:00:00 29.3 9 Norte 24 Noroeste 0 -- -- 21
2020-09-11 16:00:00 29.6 4 Oeste 17 Norte 0 -- -- 21
2020-09-11 15:00:00 28.6 11 Oeste 23 Oeste 0 -- -- 23
2020-09-11 14:00:00 28.3 9 Noroeste 18 Nordeste 0 -- -- 24
2020-09-11 13:00:00 26.6 8 Norte 17 Norte 0 -- -- 27
2020-09-11 12:00:00 23.7 7 Norte 15 Norte 0 -- -- 32
2020-09-11 11:00:00 20.2 3 Nordeste 6 Nordeste 0 -- -- 37
2020-09-11 10:00:00 16.1 3 Nordeste 5 Nordeste 0 -- -- 46
2020-09-11 09:00:00 10.6 0 Calma 4 Sudoeste 0 -- -- 65
2020-09-11 08:00:00 8.3 0 Calma 5 Sur 0 -- -- 68
2020-09-11 07:00:00 8.4 3 Sur 5 Sur 0 -- -- 67
2020-09-11 06:00:00 9.5 0 Calma 5 Sur 0 -- -- 63
2020-09-11 05:00:00 10.3 0 Calma 2 Oeste 0 -- -- 59
2020-09-11 04:00:00 10.5 0 Calma 4 Sur 0 -- -- 59
2020-09-11 03:00:00 11 0 Calma 4 Sudoeste 0 -- -- 57
2020-09-11 02:00:00 11.9 0 Calma 5 Sur 0 -- -- 52
2020-09-11 01:00:00 13.3 0 Calma 6 Sur 0 -- -- 49
2020-09-11 00:00:00 13.7 4 Sur 6 Sudeste 0 -- -- 47
2020-09-10 23:00:00 14.2 4 Sur 6 Sur 0 -- -- 45
2020-09-10 22:00:00 17.2 3 Sur 4 Sur 0 -- -- 38
2020-09-10 21:00:00 22.3 2 Norte 10 Nordeste 0 -- -- 30
2020-09-10 20:00:00 25.5 6 Nordeste 15 Norte 0 -- -- 25
2020-09-10 19:00:00 26.9 8 Norte 20 Norte 0 -- -- 23
2020-09-10 18:00:00 27.5 9 Norte 20 Nordeste 0 -- -- 24
2020-09-10 17:00:00 27.8 8 Nordeste 30 Norte 0 -- -- 24
2020-09-10 16:00:00 27.4 12 Nordeste 24 Nordeste 0 -- -- 23
2020-09-10 15:00:00 27.2 10 Norte 22 Nordeste 0 -- -- 25
2020-09-10 14:00:00 26.3 11 Nordeste 20 Nordeste 0 -- -- 28
2020-09-10 13:00:00 24.6 10 Nordeste 17 Este 0 -- -- 33
2020-09-10 12:00:00 23.3 7 Nordeste 14 Nordeste 0 -- -- 36
2020-09-10 11:00:00 20.3 4 Norte 9 Nordeste 0 -- -- 39
2020-09-10 10:00:00 17.6 3 Sudeste 7 Sudeste 0 -- -- 44
2020-09-10 09:00:00 10 0 Calma 4 Sur 0 -- -- 65
2020-09-10 08:00:00 7.4 0 Calma 3 Sudoeste 0 -- -- 68
2020-09-10 07:00:00 8 3 Sur 6 Sur 0 -- -- 65
2020-09-10 06:00:00 8.8 3 Sur 6 Sur 0 -- -- 62
2020-09-10 05:00:00 9.2 3 Sur 5 Sur 0 -- -- 60
2020-09-10 04:00:00 10 2 Sur 6 Oeste 0 -- -- 56
2020-09-10 03:00:00 10.7 0 Calma 5 Sur 0 -- -- 54
2020-09-10 02:00:00 12 4 Sur 5 Sur 0 -- -- 49
2020-09-10 01:00:00 13.2 4 Sur 8 Sur 0 -- -- 46
2020-09-10 00:00:00 13 4 Sur 6 Sur 0 -- -- 46
2020-09-09 23:00:00 14.1 4 Sur 7 Sur 0 -- -- 42
2020-09-09 22:00:00 15.7 3 Sur 5 Sur 0 -- -- 38
2020-09-09 21:00:00 21.6 0 Calma 14 Norte 0 -- -- 27
2020-09-09 20:00:00 24.9 10 Norte 21 Norte 0 -- -- 23
2020-09-09 19:00:00 26.5 12 Norte 25 Norte 0 -- -- 21
2020-09-09 18:00:00 27.2 11 Norte 26 Norte 0 -- -- 21
2020-09-09 17:00:00 27.7 12 Norte 20 Norte 0 -- -- 22
2020-09-09 16:00:00 27.5 6 Sur 19 Norte 0 -- -- 22
2020-09-09 15:00:00 27.2 5 Noroeste 19 Norte 0 -- -- 22
2020-09-09 14:00:00 26.3 10 Norte 20 Norte 0 -- -- 24
2020-09-09 13:00:00 25.2 5 Oeste 17 Norte 0 -- -- 27
2020-09-09 12:00:00 24 8 Norte 17 Noroeste 0 -- -- 29
2020-09-09 11:00:00 21.6 5 Norte 8 Norte 0 -- -- 34
2020-09-09 10:00:00 16.9 2 Norte 4 Norte 0 -- -- 45
2020-09-09 09:00:00 9.7 0 Calma 3 Sur 0 -- -- 65
2020-09-09 08:00:00 7.5 0 Calma 3 Sur 0 -- -- 66
2020-09-09 07:00:00 9.2 0 Calma 6 Noroeste 0 -- -- 62
2020-09-09 06:00:00 9.8 2 Sur 9 Sur 0 -- -- 60
2020-09-09 05:00:00 9.3 5 Sudeste 6 Sudeste 0 -- -- 61
2020-09-09 04:00:00 9.3 2 Sur 8 Oeste 0 -- -- 56
2020-09-09 03:00:00 11.2 2 Sudoeste 5 Sur 0 -- -- 50
2020-09-09 02:00:00 12.9 4 Nordeste 9 Sudoeste 0 -- -- 45
2020-09-09 01:00:00 14.5 5 Sur 9 Sur 0 -- -- 42
2020-09-09 00:00:00 14.5 4 Sur 9 Sur 0 -- -- 41
2020-09-08 23:00:00 17 5 Sur 9 Sur 0 -- -- 36
2020-09-08 22:00:00 18.9 6 Sudeste 16 Este 0 -- -- 31
2020-09-08 21:00:00 21.3 9 Este 19 Sudeste 0 -- -- 27
2020-09-08 20:00:00 24.1 13 Nordeste 24 Nordeste 0 -- -- 21
2020-09-08 19:00:00 25.6 13 Nordeste 28 Nordeste 0 -- -- 19
2020-09-08 18:00:00 26 15 Nordeste 24 Este 0 -- -- 20
2020-09-08 17:00:00 26.2 13 Nordeste 29 Nordeste 0 -- -- 21
2020-09-08 16:00:00 25.7 15 Nordeste 31 Nordeste 0 -- -- 22
2020-09-08 15:00:00 25.1 10 Nordeste 40 Nordeste 0 -- -- 23
2020-09-08 14:00:00 22.7 10 Norte 21 Norte 0 -- -- 30
2020-09-08 13:00:00 19.5 8 Nordeste 14 Norte 0 -- -- 37
2020-09-08 12:00:00 16.6 5 Norte 15 Norte 0 -- -- 44
2020-09-08 11:00:00 14.4 9 Norte 15 Nordeste 0 -- -- 49
2020-09-08 10:00:00 11.1 7 Nordeste 13 Nordeste 0 -- -- 62
2020-09-08 09:00:00 7.2 6 Nordeste 13 Nordeste 0 -- -- 79
2020-09-08 08:00:00 4.5 3 Norte 6 Noroeste 0 -- -- 84
2020-09-08 07:00:00 5.3 4 Norte 10 Norte 0 -- -- 81
2020-09-08 06:00:00 6 2 Sudeste 9 Norte 0 -- -- 69
2020-09-08 05:00:00 8.1 5 Norte 15 Nordeste 0 -- -- 68
2020-09-08 04:00:00 9.5 8 Norte 15 Nordeste 0 -- -- 63
2020-09-08 03:00:00 10.3 2 Nordeste 12 Nordeste 0 -- -- 59
2020-09-08 02:00:00 11.2 5 Este 19 Nordeste 0 -- -- 55
2020-09-08 01:00:00 12.6 12 Nordeste 20 Este 0 -- -- 53
2020-09-08 00:00:00 13.6 8 Este 17 Nordeste 0 -- -- 49
2020-09-07 23:00:00 14.4 5 Nordeste 18 Este 0 -- -- 46
2020-09-07 22:00:00 16.7 10 Nordeste 19 Nordeste 0 -- -- 40
2020-09-07 21:00:00 18.7 10 Nordeste 27 Norte 0 -- -- 37
2020-09-07 20:00:00 21.5 13 Nordeste 24 Nordeste 0 -- -- 31
2020-09-07 19:00:00 22.5 14 Nordeste 28 Nordeste 0 -- -- 29
2020-09-07 18:00:00 22.9 17 Nordeste 29 Nordeste 0 -- -- 29
2020-09-07 17:00:00 22.9 17 Nordeste 30 Este 0 -- -- 29
2020-09-07 16:00:00 22.2 12 Nordeste 28 Este 0 -- -- 32
2020-09-07 15:00:00 21.5 14 Nordeste 30 Nordeste 0 -- -- 33
2020-09-07 14:00:00 20.3 15 Nordeste 33 Nordeste 0 -- -- 36
2020-09-07 13:00:00 18.7 18 Nordeste 31 Nordeste 0 -- -- 42
2020-09-07 12:00:00 17 15 Nordeste 33 Nordeste 0 -- -- 50
2020-09-07 11:00:00 15.1 18 Nordeste 30 Nordeste 0 -- -- 55
2020-09-07 10:00:00 13.4 18 Nordeste 28 Nordeste 0 -- -- 63
2020-09-07 09:00:00 10.7 11 Nordeste 17 Este 0 -- -- 75
2020-09-07 08:00:00 8.4 4 Nordeste 10 Nordeste 0 -- -- 82
2020-09-07 07:00:00 9.4 6 Nordeste 10 Nordeste 0 -- -- 79
2020-09-07 06:00:00 10.1 5 Nordeste 16 Nordeste 0 -- -- 75
2020-09-07 05:00:00 11.2 9 Nordeste 14 Nordeste 0 -- -- 70
2020-09-07 04:00:00 11.7 7 Nordeste 22 Nordeste 0 -- -- 67
2020-09-07 03:00:00 12.9 10 Nordeste 28 Nordeste 0 -- -- 63
2020-09-07 02:00:00 14.1 14 Nordeste 31 Nordeste 0 -- -- 59
2020-09-07 01:00:00 16.1 12 Nordeste 20 Nordeste 0 -- -- 52
2020-09-07 00:00:00 17.4 8 Nordeste 14 Nordeste 0 -- -- 52
2020-09-06 23:00:00 19.1 7 Este 22 Nordeste 0 -- -- 48
2020-09-06 22:00:00 21.2 9 Nordeste 23 Nordeste 0 -- -- 44
2020-09-06 21:00:00 23.8 11 Nordeste 23 Nordeste 0 -- -- 38
2020-09-06 20:00:00 26.8 13 Norte 22 Norte 0 -- -- 32
2020-09-06 19:00:00 28.4 12 Norte 23 Norte 0 -- -- 29
2020-09-06 18:00:00 29.1 10 Nordeste 26 Norte 0 -- -- 28
2020-09-06 17:00:00 29.2 13 Norte 24 Nordeste 0 -- -- 29
2020-09-06 16:00:00 28.3 13 Norte 24 Norte 0 -- -- 32
2020-09-06 15:00:00 27.1 11 Norte 24 Nordeste 0 -- -- 35
2020-09-06 14:00:00 25.4 11 Norte 23 Norte 0 -- -- 40
2020-09-06 13:00:00 23.3 9 Nordeste 17 Norte 0 -- -- 46
2020-09-06 12:00:00 20.7 9 Nordeste 17 Nordeste 0 -- -- 55
2020-09-06 11:00:00 18.3 8 Nordeste 17 Nordeste 0 -- -- 63
2020-09-06 10:00:00 15.2 9 Nordeste 14 Nordeste 0 -- -- 76
2020-09-06 09:00:00 11 2 Norte 4 Norte 0 -- -- 90
2020-09-06 08:00:00 9.7 0 Calma 4 Norte 0 -- -- 85
2020-09-06 07:00:00 11.8 3 Norte 7 Norte 0 -- -- 85
2020-09-06 06:00:00 12.4 5 Norte 7 Norte 0 -- -- 84
2020-09-06 05:00:00 13.4 3 Nordeste 12 Nordeste 0 -- -- 78
2020-09-06 04:00:00 14.5 8 Nordeste 20 Nordeste 0 -- -- 76
2020-09-06 03:00:00 16 9 Norte 15 Norte 0 -- -- 69
2020-09-06 02:00:00 17.2 6 Norte 15 Nordeste 0 -- -- 62
2020-09-06 01:00:00 18.8 8 Nordeste 14 Nordeste 0 -- -- 54
2020-09-06 00:00:00 21 10 Nordeste 19 Nordeste 0 -- -- 47
2020-09-05 23:00:00 22.5 10 Nordeste 21 Nordeste 0 -- -- 41
2020-09-05 22:00:00 21.5 4 Este 14 Nordeste 0 -- -- 34
2020-09-05 21:00:00 25.9 7 Norte 16 Norte 0 -- -- 27
2020-09-05 20:00:00 29 13 Norte 22 Noroeste 0 -- -- 22
2020-09-05 19:00:00 30.6 11 Noroeste 27 Norte 0 -- -- 21
2020-09-05 18:00:00 31.2 10 Norte 24 Nordeste 0 -- -- 20
2020-09-05 17:00:00 31.5 9 Norte 30 Norte 0 -- -- 20
2020-09-05 16:00:00 31.3 10 Noroeste 27 Noroeste 0 -- -- 21
2020-09-05 15:00:00 30.9 14 Norte 28 Noroeste 0 -- -- 21
2020-09-05 14:00:00 29.7 12 Norte 19 Norte 0 -- -- 24
2020-09-05 13:00:00 28.2 8 Norte 18 Norte 0 -- -- 27
2020-09-05 12:00:00 27.1 7 Norte 15 Noroeste 0 -- -- 29
2020-09-05 11:00:00 25.6 3 Sudeste 12 Oeste 0 -- -- 33
2020-09-05 10:00:00 22.2 5 Sudoeste 10 Oeste 0 -- -- 40
2020-09-05 09:00:00 15.2 0 Calma 5 Sur 0 -- -- 56
2020-09-05 08:00:00 12.6 4 Sur 6 Sur 0 -- -- 60
2020-09-05 07:00:00 13.2 4 Sur 7 Sudoeste 0 -- -- 58
2020-09-05 06:00:00 15.2 4 Sur 12 Sudeste 0 -- -- 52
2020-09-05 05:00:00 16 5 Sur 9 Sur 0 -- -- 50
2020-09-05 04:00:00 16.5 4 Sudeste 9 Sudeste 0 -- -- 47
2020-09-05 03:00:00 18.6 4 Sur 14 Sudoeste 0 -- -- 42
2020-09-05 02:00:00 20.7 9 Sudoeste 19 Sudoeste 0 -- -- 39
2020-09-05 01:00:00 20.2 6 Sudoeste 12 Sudoeste 0 -- -- 40
2020-09-05 00:00:00 18.9 5 Sudoeste 9 Sur 0 -- -- 42
2020-09-04 23:00:00 20.4 5 Sur 12 Sudeste 0 -- -- 38
2020-09-04 22:00:00 22.6 6 Sudoeste 12 Oeste 0 -- -- 31
2020-09-04 21:00:00 26 2 Noroeste 9 Norte 0 -- -- 24
2020-09-04 20:00:00 29.7 7 Norte 18 Norte 0 -- -- 20
2020-09-04 19:00:00 31.1 9 Norte 22 Norte 0 -- -- 18
2020-09-04 18:00:00 31.7 7 Norte 20 Nordeste 0 -- -- 18
2020-09-04 17:00:00 32.1 13 Norte 22 Norte 0 -- -- 18
2020-09-04 16:00:00 32 15 Norte 24 Norte 0 -- -- 18
2020-09-04 15:00:00 31.7 10 Noroeste 26 Norte 0 -- -- 18
2020-09-04 14:00:00 31.2 9 Noroeste 43 Noroeste 0 -- -- 19
2020-09-04 13:00:00 30.6 9 Noroeste 31 Noroeste 0 -- -- 20
2020-09-04 12:00:00 29.9 8 Oeste 20 Oeste 0 -- -- 21
2020-09-04 11:00:00 28.3 10 Sudoeste 18 Sur 0 -- -- 22
2020-09-04 10:00:00 21.8 3 Norte 4 Norte 0 -- -- 36
2020-09-04 09:00:00 13.9 0 Calma 4 Oeste 0 -- -- 51
2020-09-04 08:00:00 11.3 0 Calma 8 Sudoeste 0 -- -- 56
2020-09-04 07:00:00 10.6 4 Sur 5 Sur 0 -- -- 58
2020-09-04 06:00:00 11.5 2 Sudoeste 7 Sur 0 -- -- 55
2020-09-04 05:00:00 12.8 0 Calma 5 Noroeste 0 -- -- 50
2020-09-04 04:00:00 13.6 2 Sur 5 Sur 0 -- -- 48
2020-09-04 03:00:00 13.4 2 Sur 6 Sudeste 0 -- -- 46
2020-09-04 02:00:00 13.2 4 Sur 6 Sur 0 -- -- 44
2020-09-04 01:00:00 13.9 0 Calma 6 Sur 0 -- -- 42
2020-09-04 00:00:00 15.8 4 Sur 7 Sur 0 -- -- 38
2020-09-03 23:00:00 16.9 3 Sur 8 Sur 0 -- -- 35
2020-09-03 22:00:00 18.5 4 Sur 6 Sur 0 -- -- 33
2020-09-03 21:00:00 24.4 0 Calma 13 Norte 0 -- -- 24
2020-09-03 20:00:00 28 7 Norte 16 Noroeste 0 -- -- 21
2020-09-03 19:00:00 29.4 4 Nordeste 14 Norte 0 -- -- 19
2020-09-03 18:00:00 29.9 7 Norte 19 Norte 0 -- -- 19
2020-09-03 17:00:00 29.8 5 Nordeste 20 Norte 0 -- -- 20
2020-09-03 16:00:00 29.7 13 Norte 26 Norte 0 -- -- 20
2020-09-03 15:00:00 29.7 11 Nordeste 19 Nordeste 0 -- -- 19
2020-09-03 14:00:00 28.7 8 Noroeste 20 Noroeste 0 -- -- 21
2020-09-03 13:00:00 28 7 Norte 17 Norte 0 -- -- 22
2020-09-03 12:00:00 26.2 7 Norte 17 Norte 0 -- -- 26
2020-09-03 11:00:00 22.3 5 Norte 10 Noroeste 0 -- -- 32
2020-09-03 10:00:00 18 3 Norte 6 Norte 0 -- -- 39
2020-09-03 09:00:00 10.3 0 Calma 3 Sur 0 -- -- 62
2020-09-03 08:00:00 7.8 3 Sur 4 Sur 0 -- -- 64
2020-09-03 07:00:00 7.9 2 Sur 6 Sur 0 -- -- 65
2020-09-03 06:00:00 8.4 3 Sur 6 Sur 0 -- -- 62
2020-09-03 05:00:00 8.1 4 Sur 7 Sur 0 -- -- 62
2020-09-03 04:00:00 8.9 0 Calma 4 Sur 0 -- -- 58
2020-09-03 03:00:00 9.4 3 Sur 5 Sur 0 -- -- 57
2020-09-03 02:00:00 10.3 3 Sur 5 Sudeste 0 -- -- 53
2020-09-03 01:00:00 11.4 0 Calma 5 Sur 0 -- -- 47
2020-09-03 00:00:00 12.2 4 Sur 5 Sur 0 -- -- 45
2020-09-02 23:00:00 13.3 3 Sur 4 Sur 0 -- -- 41
2020-09-02 22:00:00 17.2 3 Sur 5 Nordeste 0 -- -- 33
2020-09-02 21:00:00 21.7 5 Nordeste 15 Norte 0 -- -- 26
2020-09-02 20:00:00 25.1 9 Nordeste 23 Nordeste 0 -- -- 21
2020-09-02 19:00:00 26.2 10 Nordeste 25 Norte 0 -- -- 20
2020-09-02 18:00:00 26.8 10 Nordeste 23 Nordeste 0 -- -- 19
2020-09-02 17:00:00 27.1 14 Norte 26 Norte 0 -- -- 20
2020-09-02 16:00:00 26.7 12 Norte 27 Norte 0 -- -- 21
2020-09-02 15:00:00 26.3 11 Nordeste 27 Norte 0 -- -- 22
2020-09-02 14:00:00 25.5 13 Nordeste 28 Nordeste 0 -- -- 23
2020-09-02 13:00:00 23.7 12 Norte 22 Norte 0 -- -- 29
2020-09-02 12:00:00 20.7 10 Nordeste 17 Nordeste 0 -- -- 38
2020-09-02 11:00:00 17.9 10 Norte 18 Nordeste 0 -- -- 46
2020-09-02 10:00:00 13.5 4 Norte 7 Noroeste 0 -- -- 56
2020-09-02 09:00:00 6.8 0 Calma 3 Sur 0 -- -- 68
2020-09-02 08:00:00 4.3 2 Sur 4 Sur 0 -- -- 73
2020-09-02 07:00:00 4.7 3 Sur 4 Sur 0 -- -- 71
2020-09-02 06:00:00 5.7 3 Sur 5 Sur 0 -- -- 64
2020-09-02 05:00:00 6.3 3 Sur 5 Sur 0 -- -- 61
2020-09-02 04:00:00 7.2 2 Sudoeste 4 Sur 0 -- -- 53
2020-09-02 03:00:00 8.2 0 Calma 4 Sudeste 0 -- -- 48
2020-09-02 02:00:00 10.5 0 Calma 6 Noroeste 0 -- -- 42
2020-09-02 01:00:00 11.2 3 Norte 9 Sur 0 -- -- 40
2020-09-02 00:00:00 11.3 4 Sur 6 Sur 0 -- -- 41
2020-09-01 23:00:00 12.2 3 Sur 6 Sudeste 0 -- -- 40
2020-09-01 22:00:00 15.6 3 Sur 4 Sudeste 0 -- -- 33
2020-09-01 21:00:00 21.5 2 Norte 12 Nordeste 0 -- -- 24
2020-09-01 20:00:00 24.2 7 Nordeste 20 Nordeste 0 -- -- 22
2020-09-01 19:00:00 25.9 12 Norte 23 Norte 0 -- -- 21
2020-09-01 18:00:00 26 7 Nordeste 19 Norte 0 -- -- 18
2020-09-01 17:00:00 25.7 12 Norte 22 Norte 0 -- -- 19
2020-09-01 16:00:00 25.2 11 Norte 24 Norte 0 -- -- 20
2020-09-01 15:00:00 25.1 11 Norte 24 Nordeste 0 -- -- 18
2020-09-01 14:00:00 24.3 12 Norte 26 Norte 0 -- -- 22
2020-09-01 13:00:00 23.6 8 Norte 16 Norte 0 -- -- 23
2020-09-01 12:00:00 22.4 4 Norte 11 Norte 0 -- -- 24
2020-09-01 11:00:00 20.2 6 Norte 10 Norte 0 -- -- 26
2020-09-01 10:00:00 16 2 Sudeste 5 Sur 0 -- -- 39
2020-09-01 09:00:00 12.9 0 Calma 5 Norte 0 -- -- 44
2020-09-01 08:00:00 12.8 3 Sudoeste 8 Sudoeste 0 -- -- 40
2020-09-01 07:00:00 13.9 3 Sudoeste 10 Sudeste 0 -- -- 37
2020-09-01 06:00:00 13.1 0 Calma 5 Sudoeste 0 -- -- 42
2020-09-01 05:00:00 12.7 4 Sur 8 Sur 0 -- -- 41
2020-09-01 04:00:00 12.7 0 Calma 5 Sur 0 -- -- 41
2020-09-01 03:00:00 12.5 0 Calma 6 Sur 0 -- -- 39
2020-09-01 02:00:00 11.3 4 Sur 7 Sur 0 -- -- 42
2020-09-01 01:00:00 9.8 4 Sur 6 Sudeste 0 -- -- 45
2020-09-01 00:00:00 10 4 Sur 6 Sur 0 -- -- 44
2020-08-31 23:00:00 11.7 5 Sur 8 Sur 0 -- -- 40
2020-08-31 22:00:00 14.1 3 Sur 4 Sur 0 -- -- 34
2020-08-31 21:00:00 20 4 Norte 13 Norte 0 -- -- 25
2020-08-31 20:00:00 23.8 6 Noroeste 14 Noroeste 0 -- -- 19
2020-08-31 19:00:00 24.7 5 Oeste 22 Oeste 0 -- -- 20
2020-08-31 18:00:00 24.6 6 Norte 21 Norte 0 -- -- 22
2020-08-31 17:00:00 25 9 Noroeste 22 Noroeste 0 -- -- 21
2020-08-31 16:00:00 23.7 12 Norte 23 Noroeste 0 -- -- 23
2020-08-31 15:00:00 22.4 11 Oeste 26 Oeste 0 -- -- 24
2020-08-31 14:00:00 22.3 13 Noroeste 23 Noroeste 0 -- -- 25
2020-08-31 13:00:00 21.5 7 Noroeste 18 Noroeste 0 -- -- 27
2020-08-31 12:00:00 19.9 5 Noroeste 15 Oeste 0 -- -- 29
2020-08-31 11:00:00 17.1 6 Noroeste 12 Noroeste 0 -- -- 34
2020-08-31 10:00:00 13.4 3 Noroeste 8 Noroeste 0 -- -- 44
2020-08-31 09:00:00 6 0 Calma 4 Oeste 0 -- -- 73
2020-08-31 08:00:00 3.4 0 Calma 3 Noroeste 0 -- -- 75
2020-08-31 07:00:00 4 0 Calma 4 Sur 0 -- -- 71
2020-08-31 06:00:00 4.1 0 Calma 4 Norte 0 -- -- 71
2020-08-31 05:00:00 4.5 0 Calma 2 Sudoeste 0 -- -- 68
2020-08-31 04:00:00 5.2 0 Calma 2 Noroeste 0 -- -- 64
2020-08-31 03:00:00 6.6 0 Calma 3 Noroeste 0 -- -- 59
2020-08-31 02:00:00 7.1 2 Norte 5 Norte 0 -- -- 60
2020-08-31 01:00:00 6.6 0 Calma 5 Sur 0 -- -- 58
2020-08-31 00:00:00 8.6 0 Calma 7 Sur 0 -- -- 53
2020-08-30 23:00:00 8.8 2 Sur 5 Sudeste 0 -- -- 50
2020-08-30 22:00:00 12.7 0 Calma 8 Norte 0 -- -- 41
2020-08-30 21:00:00 15.4 5 Norte 22 Norte 0 -- -- 36
2020-08-30 20:00:00 17.9 13 Nordeste 24 Norte 0 -- -- 33
2020-08-30 19:00:00 18.7 14 Nordeste 27 Nordeste 0 -- -- 31
2020-08-30 18:00:00 19.3 14 Norte 29 Norte 0 -- -- 30
2020-08-30 17:00:00 19.8 13 Nordeste 30 Noroeste 0 -- -- 32
2020-08-30 16:00:00 19.3 11 Nordeste 26 Nordeste 0 -- -- 32
2020-08-30 15:00:00 18.4 13 Norte 28 Nordeste 0 -- -- 36
2020-08-30 14:00:00 17.7 15 Nordeste 32 Nordeste 0 -- -- 38
2020-08-30 13:00:00 16.7 14 Nordeste 29 Este 0 -- -- 42
2020-08-30 12:00:00 15.5 17 Nordeste 33 Nordeste 0 -- -- 47
2020-08-30 11:00:00 14.1 14 Nordeste 26 Nordeste 0 -- -- 51
2020-08-30 10:00:00 12.4 18 Nordeste 26 Nordeste 0 -- -- 59
2020-08-30 09:00:00 6.8 3 Nordeste 5 Nordeste 0 -- -- 85
2020-08-30 08:00:00 4.3 2 Noroeste 4 Este 0 -- -- 86
2020-08-30 07:00:00 5.4 0 Calma 4 Norte 0 -- -- 84
2020-08-30 06:00:00 6.1 3 Nordeste 4 Nordeste 0 -- -- 83
2020-08-30 05:00:00 7.3 3 Norte 13 Nordeste 0 -- -- 80
2020-08-30 04:00:00 8.8 7 Este 18 Este 0 -- -- 76
2020-08-30 03:00:00 9.5 6 Este 15 Este 0 -- -- 76
2020-08-30 02:00:00 10.9 9 Este 19 Este 0 -- -- 69
2020-08-30 01:00:00 12.4 8 Nordeste 21 Nordeste 0 -- -- 64
2020-08-30 00:00:00 13.3 8 Nordeste 21 Norte 0 -- -- 56
2020-08-29 23:00:00 14 10 Norte 24 Nordeste 0 -- -- 54
2020-08-29 22:00:00 14.6 0 Calma 29 Norte 0 -- -- 60
2020-08-29 21:00:00 16.4 17 Norte 30 Norte 0 -- -- 44
2020-08-29 20:00:00 18.2 13 Norte 31 Norte 0 -- -- 37
2020-08-29 19:00:00 19.3 20 Norte 37 Norte 0 -- -- 32
2020-08-29 18:00:00 19.5 18 Norte 36 Norte 0 -- -- 33
2020-08-29 17:00:00 20.3 17 Norte 30 Norte 0 -- -- 34
2020-08-29 16:00:00 20 14 Norte 30 Norte 0 -- -- 34
2020-08-29 15:00:00 19.9 19 Norte 36 Norte 0 -- -- 35
2020-08-29 14:00:00 18.5 14 Norte 31 Norte 0 -- -- 39
2020-08-29 13:00:00 17.6 12 Norte 30 Norte 0 -- -- 41
2020-08-29 12:00:00 15.6 14 Norte 26 Norte 0 -- -- 49
2020-08-29 11:00:00 14.4 14 Norte 26 Norte 0 -- -- 53
2020-08-29 10:00:00 13 8 Norte 16 Nordeste 0 -- -- 60
2020-08-29 09:00:00 9.6 3 Este 5 Sudeste 0 -- -- 70
2020-08-29 08:00:00 8.7 2 Norte 5 Nordeste 0 -- -- 72
2020-08-29 07:00:00 10.1 4 Nordeste 9 Nordeste 0 -- -- 68
2020-08-29 06:00:00 10.2 3 Norte 10 Nordeste 0 -- -- 68
2020-08-29 05:00:00 10.4 0 Calma 10 Norte 0 -- -- 65
2020-08-29 04:00:00 10 0 Calma 5 Noroeste 0 -- -- 64
2020-08-29 03:00:00 10.5 0 Calma 9 Norte 0 -- -- 60
2020-08-29 02:00:00 12.1 7 Norte 14 Noroeste 0 -- -- 56
2020-08-29 01:00:00 13.7 9 Noroeste 17 Noroeste 0 -- -- 52
2020-08-29 00:00:00 14.6 6 Noroeste 21 Noroeste 0 -- -- 47
2020-08-28 23:00:00 16.2 14 Norte 21 Noroeste 0 -- -- 46
2020-08-28 22:00:00 17.6 5 Noroeste 21 Noroeste 0 -- -- 35
2020-08-28 21:00:00 19.7 11 Noroeste 28 Noroeste 0 -- -- 30
2020-08-28 20:00:00 22.6 15 Noroeste 33 Oeste 0 -- -- 21
2020-08-28 19:00:00 24.4 17 Oeste 33 Oeste 0 -- -- 16
2020-08-28 18:00:00 25.5 17 Noroeste 32 Noroeste 0 -- -- 16
2020-08-28 17:00:00 26 14 Oeste 30 Oeste 0 -- -- 18
2020-08-28 16:00:00 25.9 14 Oeste 33 Oeste 0 -- -- 21
2020-08-28 15:00:00 25.7 12 Noroeste 27 Noroeste 0 -- -- 26
2020-08-28 14:00:00 24.5 14 Oeste 31 Noroeste 0 -- -- 30
2020-08-28 13:00:00 23.3 8 Oeste 21 Noroeste 0 -- -- 33
2020-08-28 12:00:00 21.6 8 Oeste 21 Oeste 0 -- -- 50
2020-08-28 11:00:00 19.3 10 Oeste 24 Oeste 0 -- -- 62
2020-08-28 10:00:00 17.8 10 Oeste 18 Sudoeste 0 -- -- 75
2020-08-28 09:00:00 16.5 9 Sudoeste 18 Sudoeste 0 -- -- 83
2020-08-28 08:00:00 14.7 4 Sudoeste 14 Sudoeste 0 -- -- 88
2020-08-28 07:00:00 15 9 Sudoeste 13 Sudoeste 0 -- -- 88
2020-08-28 06:00:00 15.8 5 Sudoeste 18 Oeste 0 -- -- 79
2020-08-28 05:00:00 17.6 7 Oeste 14 Noroeste 0 -- -- 74
2020-08-28 04:00:00 18.3 6 Oeste 12 Oeste 0 -- -- 67
2020-08-28 03:00:00 18.1 5 Oeste 10 Oeste 0 -- -- 64
2020-08-28 02:00:00 17.6 3 Sudoeste 7 Sudoeste 0 -- -- 58
2020-08-28 01:00:00 19.4 4 Sudoeste 9 Oeste 0 -- -- 50
2020-08-28 00:00:00 23.1 6 Oeste 14 Noroeste 0 -- -- 40